sensor_id;sensor_type;location;lat;lon;timestamp;temperature;humidity
29413;DHT22;16389;50.126;8.450;2023-09-19T00:00:06;16.50;99.90
29413;DHT22;16389;50.126;8.450;2023-09-19T00:02:32;16.50;99.90
29413;DHT22;16389;50.126;8.450;2023-09-19T00:04:58;16.60;99.90
29413;DHT22;16389;50.126;8.450;2023-09-19T00:07:24;16.60;99.90
29413;DHT22;16389;50.126;8.450;2023-09-19T00:09:49;16.70;99.90
29413;DHT22;16389;50.126;8.450;2023-09-19T00:12:15;16.70;99.90
29413;DHT22;16389;50.126;8.450;2023-09-19T00:14:41;16.80;99.90
29413;DHT22;16389;50.126;8.450;2023-09-19T00:17:07;16.80;99.90
29413;DHT22;16389;50.126;8.450;2023-09-19T00:19:35;16.80;99.90
29413;DHT22;16389;50.126;8.450;2023-09-19T00:22:01;16.80;99.90
29413;DHT22;16389;50.126;8.450;2023-09-19T00:24:27;16.90;99.90
29413;DHT22;16389;50.126;8.450;2023-09-19T00:26:56;16.90;99.90
29413;DHT22;16389;50.126;8.450;2023-09-19T00:29:25;16.90;99.90
29413;DHT22;16389;50.126;8.450;2023-09-19T00:31:55;16.90;99.90
29413;DHT22;16389;50.126;8.450;2023-09-19T00:34:20;17.00;99.90
29413;DHT22;16389;50.126;8.450;2023-09-19T00:36:46;17.00;99.90
29413;DHT22;16389;50.126;8.450;2023-09-19T00:39:11;17.00;99.90
29413;DHT22;16389;50.126;8.450;2023-09-19T00:41:37;17.00;99.90
29413;DHT22;16389;50.126;8.450;2023-09-19T00:44:03;17.10;99.90
29413;DHT22;16389;50.126;8.450;2023-09-19T00:46:30;17.00;99.90
29413;DHT22;16389;50.126;8.450;2023-09-19T00:48:58;17.00;99.90
29413;DHT22;16389;50.126;8.450;2023-09-19T00:51:25;17.00;99.90
29413;DHT22;16389;50.126;8.450;2023-09-19T00:53:52;17.10;99.90
29413;DHT22;16389;50.126;8.450;2023-09-19T00:56:19;17.10;99.90
29413;DHT22;16389;50.126;8.450;2023-09-19T00:58:45;17.10;99.90
29413;DHT22;16389;50.126;8.450;2023-09-19T01:01:12;17.00;99.90
29413;DHT22;16389;50.126;8.450;2023-09-19T01:03:40;17.10;99.90
29413;DHT22;16389;50.126;8.450;2023-09-19T01:06:06;17.00;99.90
29413;DHT22;16389;50.126;8.450;2023-09-19T01:08:33;17.00;99.90
29413;DHT22;16389;50.126;8.450;2023-09-19T01:11:17;16.90;99.90
29413;DHT22;16389;50.126;8.450;2023-09-19T01:16:44;16.90;99.90
29413;DHT22;16389;50.126;8.450;2023-09-19T01:19:50;16.80;99.90
29413;DHT22;16389;50.126;8.450;2023-09-19T01:30:26;16.40;99.90
29413;DHT22;16389;50.126;8.450;2023-09-19T01:32:54;16.50;99.90
29413;DHT22;16389;50.126;8.450;2023-09-19T01:35:20;16.50;99.90
29413;DHT22;16389;50.126;8.450;2023-09-19T01:37:46;16.60;99.90
29413;DHT22;16389;50.126;8.450;2023-09-19T01:40:17;16.50;99.90
29413;DHT22;16389;50.126;8.450;2023-09-19T01:45:36;16.50;99.90
29413;DHT22;16389;50.126;8.450;2023-09-19T01:51:09;16.60;99.90
29413;DHT22;16389;50.126;8.450;2023-09-19T01:56:36;16.60;99.90
29413;DHT22;16389;50.126;8.450;2023-09-19T01:59:10;16.50;99.90
29413;DHT22;16389;50.126;8.450;2023-09-19T02:01:39;16.50;99.90
29413;DHT22;16389;50.126;8.450;2023-09-19T02:04:07;16.50;99.90
29413;DHT22;16389;50.126;8.450;2023-09-19T02:06:33;16.50;99.90
29413;DHT22;16389;50.126;8.450;2023-09-19T02:08:59;16.50;99.90
29413;DHT22;16389;50.126;8.450;2023-09-19T02:11:25;16.40;99.90
29413;DHT22;16389;50.126;8.450;2023-09-19T02:13:51;16.40;99.90
29413;DHT22;16389;50.126;8.450;2023-09-19T02:16:20;16.30;99.90
29413;DHT22;16389;50.126;8.450;2023-09-19T02:18:49;16.30;99.90
29413;DHT22;16389;50.126;8.450;2023-09-19T02:23:43;16.20;99.90
29413;DHT22;16389;50.126;8.450;2023-09-19T02:26:09;16.00;99.90
29413;DHT22;16389;50.126;8.450;2023-09-19T02:28:34;16.00;99.90
29413;DHT22;16389;50.126;8.450;2023-09-19T02:31:01;15.90;99.90
29413;DHT22;16389;50.126;8.450;2023-09-19T02:33:27;15.90;99.90
29413;DHT22;16389;50.126;8.450;2023-09-19T02:35:58;15.80;99.90
29413;DHT22;16389;50.126;8.450;2023-09-19T02:38:27;15.80;99.90
29413;DHT22;16389;50.126;8.450;2023-09-19T02:40:53;15.70;99.90
29413;DHT22;16389;50.126;8.450;2023-09-19T02:43:21;15.70;99.90
29413;DHT22;16389;50.126;8.450;2023-09-19T02:45:47;15.60;99.90
29413;DHT22;16389;50.126;8.450;2023-09-19T02:48:15;15.50;99.90
29413;DHT22;16389;50.126;8.450;2023-09-19T02:50:41;15.50;99.90
29413;DHT22;16389;50.126;8.450;2023-09-19T02:53:07;15.40;99.90
29413;DHT22;16389;50.126;8.450;2023-09-19T02:55:33;15.40;99.90
29413;DHT22;16389;50.126;8.450;2023-09-19T02:57:59;15.30;99.90
29413;DHT22;16389;50.126;8.450;2023-09-19T03:00:27;15.20;99.90
29413;DHT22;16389;50.126;8.450;2023-09-19T03:02:55;15.20;99.90
29413;DHT22;16389;50.126;8.450;2023-09-19T03:05:22;15.10;99.90
29413;DHT22;16389;50.126;8.450;2023-09-19T03:07:49;15.10;99.90
29413;DHT22;16389;50.126;8.450;2023-09-19T03:10:16;15.00;99.90
29413;DHT22;16389;50.126;8.450;2023-09-19T03:12:43;14.90;99.90
29413;DHT22;16389;50.126;8.450;2023-09-19T03:15:09;14.90;99.90
29413;DHT22;16389;50.126;8.450;2023-09-19T03:17:35;14.80;99.90
29413;DHT22;16389;50.126;8.450;2023-09-19T03:20:02;14.80;99.90
29413;DHT22;16389;50.126;8.450;2023-09-19T03:22:28;14.70;99.90
29413;DHT22;16389;50.126;8.450;2023-09-19T03:24:54;14.70;99.90
29413;DHT22;16389;50.126;8.450;2023-09-19T03:27:19;14.60;99.90
29413;DHT22;16389;50.126;8.450;2023-09-19T03:29:46;14.60;99.90
29413;DHT22;16389;50.126;8.450;2023-09-19T03:32:12;14.60;99.90
29413;DHT22;16389;50.126;8.450;2023-09-19T03:34:38;14.70;99.90
29413;DHT22;16389;50.126;8.450;2023-09-19T03:37:11;14.60;99.90
29413;DHT22;16389;50.126;8.450;2023-09-19T03:39:37;14.60;99.90
29413;DHT22;16389;50.126;8.450;2023-09-19T03:42:04;14.60;99.90
29413;DHT22;16389;50.126;8.450;2023-09-19T03:44:30;14.60;99.90
29413;DHT22;16389;50.126;8.450;2023-09-19T03:46:56;14.60;99.90
29413;DHT22;16389;50.126;8.450;2023-09-19T03:49:22;14.60;99.90
29413;DHT22;16389;50.126;8.450;2023-09-19T03:51:48;14.70;99.90
29413;DHT22;16389;50.126;8.450;2023-09-19T03:54:13;14.70;99.90
29413;DHT22;16389;50.126;8.450;2023-09-19T03:56:39;14.70;99.90
29413;DHT22;16389;50.126;8.450;2023-09-19T03:59:05;14.70;99.90
29413;DHT22;16389;50.126;8.450;2023-09-19T04:01:30;14.80;99.90
29413;DHT22;16389;50.126;8.450;2023-09-19T04:03:58;14.80;99.90
29413;DHT22;16389;50.126;8.450;2023-09-19T04:06:24;14.80;99.90
29413;DHT22;16389;50.126;8.450;2023-09-19T04:08:49;14.80;99.90
29413;DHT22;16389;50.126;8.450;2023-09-19T04:11:15;14.90;99.90
29413;DHT22;16389;50.126;8.450;2023-09-19T04:13:41;14.90;99.90
29413;DHT22;16389;50.126;8.450;2023-09-19T04:16:06;14.90;99.90
29413;DHT22;16389;50.126;8.450;2023-09-19T04:18:33;14.90;99.90
29413;DHT22;16389;50.126;8.450;2023-09-19T04:21:02;14.90;99.90
29413;DHT22;16389;50.126;8.450;2023-09-19T04:23:31;14.90;99.90
29413;DHT22;16389;50.126;8.450;2023-09-19T04:25:57;14.90;99.90
29413;DHT22;16389;50.126;8.450;2023-09-19T04:28:23;14.80;99.90
29413;DHT22;16389;50.126;8.450;2023-09-19T04:30:49;14.80;99.90
29413;DHT22;16389;50.126;8.450;2023-09-19T04:33:15;14.70;99.90
29413;DHT22;16389;50.126;8.450;2023-09-19T04:35:41;14.70;99.90
29413;DHT22;16389;50.126;8.450;2023-09-19T04:38:08;14.70;99.90
29413;DHT22;16389;50.126;8.450;2023-09-19T04:40:34;14.70;99.90
29413;DHT22;16389;50.126;8.450;2023-09-19T04:43:00;14.70;99.90
29413;DHT22;16389;50.126;8.450;2023-09-19T04:45:27;14.70;99.90
29413;DHT22;16389;50.126;8.450;2023-09-19T04:47:53;14.60;99.90
29413;DHT22;16389;50.126;8.450;2023-09-19T04:50:19;14.60;99.90
29413;DHT22;16389;50.126;8.450;2023-09-19T04:52:49;14.50;99.90
29413;DHT22;16389;50.126;8.450;2023-09-19T04:55:17;14.50;99.90
29413;DHT22;16389;50.126;8.450;2023-09-19T04:57:47;14.40;99.90
29413;DHT22;16389;50.126;8.450;2023-09-19T05:00:18;14.40;99.90
29413;DHT22;16389;50.126;8.450;2023-09-19T05:02:45;14.40;99.90
29413;DHT22;16389;50.126;8.450;2023-09-19T05:05:11;14.40;99.90
29413;DHT22;16389;50.126;8.450;2023-09-19T05:07:38;14.40;99.90
29413;DHT22;16389;50.126;8.450;2023-09-19T05:10:05;14.40;99.90
29413;DHT22;16389;50.126;8.450;2023-09-19T05:12:35;14.40;99.90
29413;DHT22;16389;50.126;8.450;2023-09-19T05:15:02;14.50;99.90
29413;DHT22;16389;50.126;8.450;2023-09-19T05:17:29;14.40;99.90
29413;DHT22;16389;50.126;8.450;2023-09-19T05:19:54;14.40;99.90
29413;DHT22;16389;50.126;8.450;2023-09-19T05:22:20;14.40;99.90
29413;DHT22;16389;50.126;8.450;2023-09-19T05:24:46;14.40;99.90
29413;DHT22;16389;50.126;8.450;2023-09-19T05:27:15;14.40;99.90
29413;DHT22;16389;50.126;8.450;2023-09-19T05:29:43;14.40;99.90
29413;DHT22;16389;50.126;8.450;2023-09-19T05:32:10;14.30;99.90
29413;DHT22;16389;50.126;8.450;2023-09-19T05:34:36;14.30;99.90
29413;DHT22;16389;50.126;8.450;2023-09-19T05:37:02;14.30;99.90
29413;DHT22;16389;50.126;8.450;2023-09-19T05:39:27;14.30;99.90
29413;DHT22;16389;50.126;8.450;2023-09-19T05:41:53;14.30;99.90
29413;DHT22;16389;50.126;8.450;2023-09-19T05:44:19;14.40;99.90
29413;DHT22;16389;50.126;8.450;2023-09-19T05:46:45;14.40;99.90
29413;DHT22;16389;50.126;8.450;2023-09-19T05:49:13;14.50;99.90
29413;DHT22;16389;50.126;8.450;2023-09-19T05:51:39;14.50;99.90
29413;DHT22;16389;50.126;8.450;2023-09-19T05:54:05;14.60;99.90
29413;DHT22;16389;50.126;8.450;2023-09-19T05:56:30;14.70;99.90
29413;DHT22;16389;50.126;8.450;2023-09-19T05:58:56;14.70;99.90
29413;DHT22;16389;50.126;8.450;2023-09-19T06:01:22;14.70;99.90
29413;DHT22;16389;50.126;8.450;2023-09-19T06:03:48;14.80;99.90
29413;DHT22;16389;50.126;8.450;2023-09-19T06:06:14;14.90;99.90
29413;DHT22;16389;50.126;8.450;2023-09-19T06:08:39;14.90;99.90
29413;DHT22;16389;50.126;8.450;2023-09-19T06:11:05;15.00;99.90
29413;DHT22;16389;50.126;8.450;2023-09-19T06:13:32;15.00;99.90
29413;DHT22;16389;50.126;8.450;2023-09-19T06:15:59;15.00;99.90
29413;DHT22;16389;50.126;8.450;2023-09-19T06:18:28;15.10;99.90
29413;DHT22;16389;50.126;8.450;2023-09-19T06:20:55;15.10;99.90
29413;DHT22;16389;50.126;8.450;2023-09-19T06:23:21;15.10;99.90
29413;DHT22;16389;50.126;8.450;2023-09-19T06:25:47;15.10;99.90
29413;DHT22;16389;50.126;8.450;2023-09-19T06:28:12;15.20;99.90
29413;DHT22;16389;50.126;8.450;2023-09-19T06:30:38;15.30;99.90
29413;DHT22;16389;50.126;8.450;2023-09-19T06:33:08;15.40;99.90
29413;DHT22;16389;50.126;8.450;2023-09-19T06:35:34;15.50;99.90
29413;DHT22;16389;50.126;8.450;2023-09-19T06:38:03;15.60;99.90
29413;DHT22;16389;50.126;8.450;2023-09-19T06:40:29;15.70;99.90
29413;DHT22;16389;50.126;8.450;2023-09-19T06:42:56;15.70;99.90
29413;DHT22;16389;50.126;8.450;2023-09-19T06:45:22;15.80;99.90
29413;DHT22;16389;50.126;8.450;2023-09-19T06:47:52;15.70;99.90
29413;DHT22;16389;50.126;8.450;2023-09-19T06:50:22;15.80;99.90
29413;DHT22;16389;50.126;8.450;2023-09-19T06:52:50;15.80;99.90
29413;DHT22;16389;50.126;8.450;2023-09-19T06:55:17;16.00;99.90
29413;DHT22;16389;50.126;8.450;2023-09-19T06:57:45;16.00;99.90
29413;DHT22;16389;50.126;8.450;2023-09-19T07:00:12;16.10;99.90
29413;DHT22;16389;50.126;8.450;2023-09-19T07:02:44;16.20;99.90
29413;DHT22;16389;50.126;8.450;2023-09-19T07:05:09;16.30;99.90
29413;DHT22;16389;50.126;8.450;2023-09-19T07:07:35;16.30;99.90
29413;DHT22;16389;50.126;8.450;2023-09-19T07:10:02;16.30;99.90
29413;DHT22;16389;50.126;8.450;2023-09-19T07:12:28;16.30;99.90
29413;DHT22;16389;50.126;8.450;2023-09-19T07:14:53;16.30;99.90
29413;DHT22;16389;50.126;8.450;2023-09-19T07:17:20;16.40;99.90
29413;DHT22;16389;50.126;8.450;2023-09-19T07:19:46;16.40;99.90
29413;DHT22;16389;50.126;8.450;2023-09-19T07:22:13;16.40;99.90
29413;DHT22;16389;50.126;8.450;2023-09-19T07:24:39;16.60;99.90
29413;DHT22;16389;50.126;8.450;2023-09-19T07:27:05;16.80;99.90
29413;DHT22;16389;50.126;8.450;2023-09-19T07:29:30;16.90;99.90
29413;DHT22;16389;50.126;8.450;2023-09-19T07:39:16;17.10;99.90
29413;DHT22;16389;50.126;8.450;2023-09-19T07:41:41;17.40;99.90
29413;DHT22;16389;50.126;8.450;2023-09-19T07:44:07;17.30;99.90
29413;DHT22;16389;50.126;8.450;2023-09-19T07:46:35;17.40;99.90
29413;DHT22;16389;50.126;8.450;2023-09-19T07:49:00;17.60;99.90
29413;DHT22;16389;50.126;8.450;2023-09-19T07:51:26;17.80;99.90
29413;DHT22;16389;50.126;8.450;2023-09-19T07:53:52;17.80;99.90
29413;DHT22;16389;50.126;8.450;2023-09-19T07:56:18;17.90;99.90
29413;DHT22;16389;50.126;8.450;2023-09-19T07:58:45;18.00;99.90
29413;DHT22;16389;50.126;8.450;2023-09-19T08:01:11;18.10;99.90
29413;DHT22;16389;50.126;8.450;2023-09-19T08:03:38;18.20;99.90
29413;DHT22;16389;50.126;8.450;2023-09-19T08:06:06;18.40;99.90
29413;DHT22;16389;50.126;8.450;2023-09-19T08:08:33;18.30;99.90
29413;DHT22;16389;50.126;8.450;2023-09-19T08:11:06;18.40;99.90
29413;DHT22;16389;50.126;8.450;2023-09-19T08:13:41;18.70;99.90
29413;DHT22;16389;50.126;8.450;2023-09-19T08:16:10;19.00;99.90
29413;DHT22;16389;50.126;8.450;2023-09-19T08:18:36;19.20;99.90
29413;DHT22;16389;50.126;8.450;2023-09-19T08:21:03;19.30;99.90
29413;DHT22;16389;50.126;8.450;2023-09-19T08:23:28;19.40;99.90
29413;DHT22;16389;50.126;8.450;2023-09-19T08:25:57;19.30;99.90
29413;DHT22;16389;50.126;8.450;2023-09-19T08:28:23;18.90;99.90
29413;DHT22;16389;50.126;8.450;2023-09-19T08:30:50;18.80;99.90
29413;DHT22;16389;50.126;8.450;2023-09-19T08:33:16;19.00;99.90
29413;DHT22;16389;50.126;8.450;2023-09-19T08:35:42;19.20;99.90
29413;DHT22;16389;50.126;8.450;2023-09-19T08:38:09;19.50;99.90
29413;DHT22;16389;50.126;8.450;2023-09-19T08:40:39;19.30;99.90
29413;DHT22;16389;50.126;8.450;2023-09-19T08:43:07;19.40;99.90
29413;DHT22;16389;50.126;8.450;2023-09-19T08:45:34;19.40;99.90
29413;DHT22;16389;50.126;8.450;2023-09-19T08:48:23;19.50;99.90
29413;DHT22;16389;50.126;8.450;2023-09-19T08:51:02;19.70;99.90
29413;DHT22;16389;50.126;8.450;2023-09-19T08:56:20;19.90;99.90
29413;DHT22;16389;50.126;8.450;2023-09-19T08:58:54;20.30;99.90
29413;DHT22;16389;50.126;8.450;2023-09-19T09:01:22;20.50;99.90
29413;DHT22;16389;50.126;8.450;2023-09-19T09:03:51;20.40;99.90
29413;DHT22;16389;50.126;8.450;2023-09-19T09:06:20;20.60;99.90
29413;DHT22;16389;50.126;8.450;2023-09-19T09:08:46;20.70;99.90
29413;DHT22;16389;50.126;8.450;2023-09-19T09:11:13;20.60;99.90
29413;DHT22;16389;50.126;8.450;2023-09-19T09:13:40;20.80;99.90
29413;DHT22;16389;50.126;8.450;2023-09-19T09:16:07;21.10;99.90
29413;DHT22;16389;50.126;8.450;2023-09-19T09:18:34;21.50;99.90
29413;DHT22;16389;50.126;8.450;2023-09-19T09:20:59;21.60;99.90
29413;DHT22;16389;50.126;8.450;2023-09-19T09:23:27;21.30;99.90
29413;DHT22;16389;50.126;8.450;2023-09-19T09:25:55;21.20;99.90
29413;DHT22;16389;50.126;8.450;2023-09-19T09:28:32;20.80;99.90
29413;DHT22;16389;50.126;8.450;2023-09-19T09:30:59;20.80;99.90
29413;DHT22;16389;50.126;8.450;2023-09-19T09:33:28;20.50;99.90
29413;DHT22;16389;50.126;8.450;2023-09-19T09:35:57;20.10;99.90
29413;DHT22;16389;50.126;8.450;2023-09-19T09:38:29;19.90;99.90
29413;DHT22;16389;50.126;8.450;2023-09-19T09:40:59;20.10;99.90
29413;DHT22;16389;50.126;8.450;2023-09-19T09:43:35;19.90;99.90
29413;DHT22;16389;50.126;8.450;2023-09-19T09:46:15;19.90;99.90
29413;DHT22;16389;50.126;8.450;2023-09-19T09:48:58;20.10;99.90
29413;DHT22;16389;50.126;8.450;2023-09-19T09:51:50;20.70;99.90
29413;DHT22;16389;50.126;8.450;2023-09-19T09:54:24;21.20;99.90
29413;DHT22;16389;50.126;8.450;2023-09-19T09:57:02;21.10;99.90
29413;DHT22;16389;50.126;8.450;2023-09-19T10:02:13;20.70;99.90
29413;DHT22;16389;50.126;8.450;2023-09-19T10:04:42;21.10;99.90
29413;DHT22;16389;50.126;8.450;2023-09-19T10:07:30;21.60;99.90
29413;DHT22;16389;50.126;8.450;2023-09-19T10:10:03;22.40;99.90
29413;DHT22;16389;50.126;8.450;2023-09-19T10:12:46;22.80;99.90
29413;DHT22;16389;50.126;8.450;2023-09-19T10:15:15;23.20;96.70
29413;DHT22;16389;50.126;8.450;2023-09-19T10:17:45;23.80;97.20
29413;DHT22;16389;50.126;8.450;2023-09-19T10:20:17;24.70;94.50
29413;DHT22;16389;50.126;8.450;2023-09-19T10:23:06;24.90;92.60
29413;DHT22;16389;50.126;8.450;2023-09-19T10:25:39;24.90;91.10
29413;DHT22;16389;50.126;8.450;2023-09-19T10:28:17;25.20;91.20
29413;DHT22;16389;50.126;8.450;2023-09-19T10:30:48;25.10;87.50
29413;DHT22;16389;50.126;8.450;2023-09-19T10:33:17;25.20;90.40
29413;DHT22;16389;50.126;8.450;2023-09-19T10:35:47;25.60;88.60
29413;DHT22;16389;50.126;8.450;2023-09-19T10:38:14;25.50;85.40
29413;DHT22;16389;50.126;8.450;2023-09-19T10:40:40;24.70;84.10
29413;DHT22;16389;50.126;8.450;2023-09-19T10:43:13;23.50;89.60
29413;DHT22;16389;50.126;8.450;2023-09-19T10:45:44;23.80;90.40
29413;DHT22;16389;50.126;8.450;2023-09-19T10:48:09;24.40;90.00
29413;DHT22;16389;50.126;8.450;2023-09-19T10:50:51;25.20;88.50
29413;DHT22;16389;50.126;8.450;2023-09-19T10:53:18;25.20;85.80
29413;DHT22;16389;50.126;8.450;2023-09-19T10:55:51;25.30;79.70
29413;DHT22;16389;50.126;8.450;2023-09-19T10:58:31;25.20;80.70
29413;DHT22;16389;50.126;8.450;2023-09-19T11:01:00;25.90;80.80
29413;DHT22;16389;50.126;8.450;2023-09-19T11:03:31;27.10;80.40
29413;DHT22;16389;50.126;8.450;2023-09-19T11:06:12;28.70;74.40
29413;DHT22;16389;50.126;8.450;2023-09-19T11:09:00;30.20;68.90
29413;DHT22;16389;50.126;8.450;2023-09-19T11:30:42;32.40;58.40
29413;DHT22;16389;50.126;8.450;2023-09-19T11:33:37;32.20;58.70
29413;DHT22;16389;50.126;8.450;2023-09-19T11:36:14;33.60;55.40
29413;DHT22;16389;50.126;8.450;2023-09-19T11:49:18;35.20;54.90
29413;DHT22;16389;50.126;8.450;2023-09-19T11:51:51;35.50;50.70
29413;DHT22;16389;50.126;8.450;2023-09-19T11:54:17;36.30;49.90
29413;DHT22;16389;50.126;8.450;2023-09-19T11:56:54;36.40;48.70
29413;DHT22;16389;50.126;8.450;2023-09-19T11:59:21;37.40;48.10
29413;DHT22;16389;50.126;8.450;2023-09-19T12:02:06;37.10;45.70
29413;DHT22;16389;50.126;8.450;2023-09-19T12:04:43;36.00;46.40
29413;DHT22;16389;50.126;8.450;2023-09-19T12:07:12;36.00;49.20
29413;DHT22;16389;50.126;8.450;2023-09-19T12:09:45;35.80;46.60
29413;DHT22;16389;50.126;8.450;2023-09-19T12:12:39;36.10;47.80
29413;DHT22;16389;50.126;8.450;2023-09-19T12:15:05;38.30;46.90
29413;DHT22;16389;50.126;8.450;2023-09-19T12:17:36;36.90;43.80
29413;DHT22;16389;50.126;8.450;2023-09-19T12:20:01;34.70;46.40
29413;DHT22;16389;50.126;8.450;2023-09-19T12:22:41;33.20;48.90
29413;DHT22;16389;50.126;8.450;2023-09-19T12:25:12;34.10;49.20
29413;DHT22;16389;50.126;8.450;2023-09-19T12:27:49;35.50;48.60
29413;DHT22;16389;50.126;8.450;2023-09-19T12:30:18;33.90;47.10
29413;DHT22;16389;50.126;8.450;2023-09-19T12:32:46;32.80;52.60
29413;DHT22;16389;50.126;8.450;2023-09-19T12:35:30;34.20;51.40
29413;DHT22;16389;50.126;8.450;2023-09-19T12:37:56;37.30;46.10
29413;DHT22;16389;50.126;8.450;2023-09-19T12:40:22;38.10;44.20
29413;DHT22;16389;50.126;8.450;2023-09-19T12:42:53;36.20;44.00
29413;DHT22;16389;50.126;8.450;2023-09-19T12:45:24;35.20;46.60
29413;DHT22;16389;50.126;8.450;2023-09-19T12:48:18;36.00;45.00
29413;DHT22;16389;50.126;8.450;2023-09-19T13:01:16;35.40;45.70
29413;DHT22;16389;50.126;8.450;2023-09-19T13:03:42;38.90;42.80
29413;DHT22;16389;50.126;8.450;2023-09-19T13:06:08;39.70;41.90
29413;DHT22;16389;50.126;8.450;2023-09-19T13:08:39;41.30;41.50
29413;DHT22;16389;50.126;8.450;2023-09-19T13:11:15;41.90;38.30
29413;DHT22;16389;50.126;8.450;2023-09-19T13:13:49;39.40;39.80
29413;DHT22;16389;50.126;8.450;2023-09-19T13:16:19;39.20;42.00
29413;DHT22;16389;50.126;8.450;2023-09-19T13:18:52;39.20;42.70
29413;DHT22;16389;50.126;8.450;2023-09-19T13:23:55;37.80;41.60
29413;DHT22;16389;50.126;8.450;2023-09-19T13:26:27;38.80;41.50
29413;DHT22;16389;50.126;8.450;2023-09-19T13:28:54;40.40;40.10
29413;DHT22;16389;50.126;8.450;2023-09-19T13:31:20;39.40;39.60
29413;DHT22;16389;50.126;8.450;2023-09-19T13:33:47;35.80;40.70
29413;DHT22;16389;50.126;8.450;2023-09-19T13:36:13;33.10;45.00
29413;DHT22;16389;50.126;8.450;2023-09-19T13:38:42;29.90;48.70
29413;DHT22;16389;50.126;8.450;2023-09-19T13:41:12;28.10;53.50
29413;DHT22;16389;50.126;8.450;2023-09-19T13:43:39;28.30;52.80
29413;DHT22;16389;50.126;8.450;2023-09-19T13:46:05;28.80;54.20
29413;DHT22;16389;50.126;8.450;2023-09-19T13:48:33;30.70;50.50
29413;DHT22;16389;50.126;8.450;2023-09-19T13:51:02;32.20;49.10
29413;DHT22;16389;50.126;8.450;2023-09-19T13:53:29;34.00;46.30
29413;DHT22;16389;50.126;8.450;2023-09-19T13:55:54;35.30;47.40
29413;DHT22;16389;50.126;8.450;2023-09-19T13:58:20;36.50;43.50
29413;DHT22;16389;50.126;8.450;2023-09-19T14:00:46;37.90;43.00
29413;DHT22;16389;50.126;8.450;2023-09-19T14:08:04;36.00;43.40
29413;DHT22;16389;50.126;8.450;2023-09-19T14:15:27;39.90;42.40
29413;DHT22;16389;50.126;8.450;2023-09-19T14:17:58;39.70;40.60
29413;DHT22;16389;50.126;8.450;2023-09-19T14:20:25;37.20;41.80
29413;DHT22;16389;50.126;8.450;2023-09-19T14:22:52;35.50;44.80
29413;DHT22;16389;50.126;8.450;2023-09-19T14:25:18;33.90;44.90
29413;DHT22;16389;50.126;8.450;2023-09-19T14:27:44;34.70;45.10
29413;DHT22;16389;50.126;8.450;2023-09-19T14:30:10;34.50;45.10
29413;DHT22;16389;50.126;8.450;2023-09-19T14:32:36;33.70;46.10
29413;DHT22;16389;50.126;8.450;2023-09-19T14:35:02;34.20;45.60
29413;DHT22;16389;50.126;8.450;2023-09-19T14:37:28;34.80;46.10
29413;DHT22;16389;50.126;8.450;2023-09-19T14:39:54;35.40;45.90
29413;DHT22;16389;50.126;8.450;2023-09-19T14:44:46;36.40;44.30
29413;DHT22;16389;50.126;8.450;2023-09-19T14:47:14;38.80;40.90
29413;DHT22;16389;50.126;8.450;2023-09-19T14:49:39;39.10;41.20
29413;DHT22;16389;50.126;8.450;2023-09-19T14:52:09;38.80;41.20
29413;DHT22;16389;50.126;8.450;2023-09-19T14:54:36;38.80;41.30
29413;DHT22;16389;50.126;8.450;2023-09-19T14:57:21;36.20;42.60
29413;DHT22;16389;50.126;8.450;2023-09-19T14:59:49;35.70;46.30
29413;DHT22;16389;50.126;8.450;2023-09-19T15:02:16;33.80;45.50
29413;DHT22;16389;50.126;8.450;2023-09-19T15:04:42;34.10;47.10
29413;DHT22;16389;50.126;8.450;2023-09-19T15:07:13;34.50;47.10
29413;DHT22;16389;50.126;8.450;2023-09-19T15:09:41;34.10;46.50
29413;DHT22;16389;50.126;8.450;2023-09-19T15:12:06;34.10;47.20
29413;DHT22;16389;50.126;8.450;2023-09-19T15:14:32;34.40;45.70
29413;DHT22;16389;50.126;8.450;2023-09-19T15:16:57;34.00;46.10
29413;DHT22;16389;50.126;8.450;2023-09-19T15:19:23;33.30;47.10
29413;DHT22;16389;50.126;8.450;2023-09-19T15:21:49;33.30;48.00
29413;DHT22;16389;50.126;8.450;2023-09-19T15:39:00;34.60;46.30
29413;DHT22;16389;50.126;8.450;2023-09-19T15:41:28;36.60;45.10
29413;DHT22;16389;50.126;8.450;2023-09-19T15:43:55;34.40;45.10
29413;DHT22;16389;50.126;8.450;2023-09-19T15:46:21;32.80;47.30
29413;DHT22;16389;50.126;8.450;2023-09-19T15:48:47;30.00;50.90
29413;DHT22;16389;50.126;8.450;2023-09-19T15:51:13;30.20;54.20
29413;DHT22;16389;50.126;8.450;2023-09-19T15:53:47;30.40;52.80
29413;DHT22;16389;50.126;8.450;2023-09-19T15:56:14;29.70;51.40
29413;DHT22;16389;50.126;8.450;2023-09-19T15:58:44;28.60;55.20
29413;DHT22;16389;50.126;8.450;2023-09-19T16:01:10;27.50;57.40
29413;DHT22;16389;50.126;8.450;2023-09-19T16:03:38;26.60;61.50
29413;DHT22;16389;50.126;8.450;2023-09-19T16:06:20;25.70;61.90
29413;DHT22;16389;50.126;8.450;2023-09-19T16:08:50;24.90;65.30
29413;DHT22;16389;50.126;8.450;2023-09-19T16:11:17;24.20;65.40
29413;DHT22;16389;50.126;8.450;2023-09-19T16:13:43;23.50;66.60
29413;DHT22;16389;50.126;8.450;2023-09-19T16:16:11;23.00;68.30
29413;DHT22;16389;50.126;8.450;2023-09-19T16:18:59;22.50;70.10
29413;DHT22;16389;50.126;8.450;2023-09-19T16:21:28;22.20;73.90
29413;DHT22;16389;50.126;8.450;2023-09-19T16:23:56;21.90;75.50
29413;DHT22;16389;50.126;8.450;2023-09-19T16:26:23;21.70;76.60
29413;DHT22;16389;50.126;8.450;2023-09-19T16:28:51;21.50;79.80
29413;DHT22;16389;50.126;8.450;2023-09-19T16:31:17;21.20;83.20
29413;DHT22;16389;50.126;8.450;2023-09-19T16:33:45;20.90;84.00
29413;DHT22;16389;50.126;8.450;2023-09-19T16:36:12;20.70;84.30
29413;DHT22;16389;50.126;8.450;2023-09-19T16:38:41;20.40;87.70
29413;DHT22;16389;50.126;8.450;2023-09-19T16:41:07;20.20;91.50
29413;DHT22;16389;50.126;8.450;2023-09-19T16:43:34;20.00;91.60
29413;DHT22;16389;50.126;8.450;2023-09-19T16:46:02;19.70;94.30
29413;DHT22;16389;50.126;8.450;2023-09-19T16:48:29;19.50;95.80
29413;DHT22;16389;50.126;8.450;2023-09-19T16:50:59;19.30;98.30
29413;DHT22;16389;50.126;8.450;2023-09-19T16:53:25;19.10;99.90
29413;DHT22;16389;50.126;8.450;2023-09-19T16:55:50;18.90;99.90
29413;DHT22;16389;50.126;8.450;2023-09-19T16:58:16;18.80;99.90
29413;DHT22;16389;50.126;8.450;2023-09-19T17:00:46;18.60;99.90
29413;DHT22;16389;50.126;8.450;2023-09-19T17:03:15;18.40;99.90
29413;DHT22;16389;50.126;8.450;2023-09-19T17:05:40;18.30;99.90
29413;DHT22;16389;50.126;8.450;2023-09-19T17:08:06;18.10;99.90
29413;DHT22;16389;50.126;8.450;2023-09-19T17:10:34;18.00;99.90
29413;DHT22;16389;50.126;8.450;2023-09-19T17:13:01;17.90;99.90
29413;DHT22;16389;50.126;8.450;2023-09-19T17:15:27;17.80;99.90
29413;DHT22;16389;50.126;8.450;2023-09-19T17:17:52;17.70;99.90
29413;DHT22;16389;50.126;8.450;2023-09-19T17:20:19;17.60;99.90
29413;DHT22;16389;50.126;8.450;2023-09-19T17:25:10;17.40;99.90